createdAt,value
2019-06-28T00:02:19.924Z,18.60
2019-06-28T00:05:01.621Z,18.50
2019-06-28T00:07:43.158Z,18.60
2019-06-28T00:10:30.395Z,18.60
2019-06-28T00:13:07.246Z,18.60
2019-06-28T00:15:49.318Z,18.60
2019-06-28T00:18:30.290Z,18.60
2019-06-28T00:21:11.687Z,18.50
2019-06-28T00:23:52.909Z,18.40
2019-06-28T00:26:34.628Z,18.50
2019-06-28T00:29:16.242Z,18.50
2019-06-28T00:31:57.618Z,18.50
2019-06-28T00:34:39.147Z,18.40
2019-06-28T00:37:20.831Z,18.30
2019-06-28T00:40:02.288Z,18.30
2019-06-28T00:42:43.055Z,18.20
2019-06-28T00:45:24.009Z,18.10
2019-06-28T00:48:05.571Z,18.00
2019-06-28T00:50:47.190Z,17.90
2019-06-28T00:53:28.626Z,17.70
2019-06-28T00:56:10.006Z,17.50
2019-06-28T00:58:51.308Z,17.40
2019-06-28T01:01:32.942Z,17.20
2019-06-28T01:04:14.438Z,17.10
2019-06-28T01:06:55.832Z,17.00
2019-06-28T01:09:37.103Z,16.90
2019-06-28T01:12:18.398Z,16.80
2019-06-28T01:14:59.779Z,16.70
2019-06-28T01:17:41.323Z,16.60
2019-06-28T01:20:22.876Z,16.60
2019-06-28T01:23:04.366Z,16.50
2019-06-28T01:25:46.055Z,16.40
2019-06-28T01:28:27.506Z,16.40
2019-06-28T01:31:09.215Z,16.30
2019-06-28T01:33:50.274Z,16.20
2019-06-28T01:36:31.452Z,16.20
2019-06-28T01:39:11.993Z,16.10
2019-06-28T01:42:00.713Z,16.10
2019-06-28T01:44:49.426Z,16.00
2019-06-28T01:47:30.627Z,15.90
2019-06-28T01:50:11.644Z,15.90
2019-06-28T01:52:53.446Z,15.80
2019-06-28T01:55:35.068Z,15.70
2019-06-28T01:58:14.897Z,15.60
2019-06-28T02:01:03.615Z,15.60
2019-06-28T02:03:52.373Z,15.60
2019-06-28T02:06:41.105Z,15.60
2019-06-28T02:09:30.145Z,15.50
2019-06-28T02:12:18.907Z,15.40
2019-06-28T02:15:07.725Z,15.40
2019-06-28T02:17:56.518Z,15.30
2019-06-28T02:20:45.314Z,15.20
2019-06-28T02:23:34.053Z,15.00
2019-06-28T02:26:22.801Z,15.00
2019-06-28T02:29:11.538Z,15.00
2019-06-28T02:32:00.250Z,14.90
2019-06-28T02:34:49.873Z,15.00
2019-06-28T02:37:38.586Z,14.90
2019-06-28T02:40:27.333Z,14.90
2019-06-28T02:43:16.592Z,14.80
2019-06-28T02:46:05.481Z,14.80
2019-06-28T02:51:49.179Z,14.60
2019-06-28T02:54:37.967Z,14.50
2019-06-28T02:57:26.707Z,14.40
2019-06-28T03:00:35.698Z,14.30
2019-06-28T03:03:24.423Z,14.30
2019-06-28T03:06:13.192Z,14.20
2019-06-28T03:09:01.878Z,14.20
2019-06-28T03:11:51.572Z,14.10
2019-06-28T03:14:40.727Z,14.10
2019-06-28T03:17:29.451Z,14.00
2019-06-28T03:20:18.244Z,14.00
2019-06-28T03:23:06.954Z,13.90
2019-06-28T03:25:55.705Z,14.00
2019-06-28T03:28:44.847Z,14.10
2019-06-28T03:31:33.608Z,14.10
2019-06-28T03:34:22.385Z,14.00
2019-06-28T03:37:12.718Z,14.00
2019-06-28T03:40:01.435Z,13.90
2019-06-28T03:42:49.602Z,13.90
2019-06-28T03:45:25.500Z,13.90
2019-06-28T03:48:07.727Z,13.90
2019-06-28T03:50:49.133Z,13.80
2019-06-28T03:53:32.529Z,13.80
2019-06-28T03:56:13.802Z,13.90
2019-06-28T03:58:55.503Z,13.90
2019-06-28T04:01:36.922Z,13.80
2019-06-28T04:04:18.681Z,13.90
2019-06-28T04:07:00.178Z,13.90
2019-06-28T04:09:41.934Z,14.10
2019-06-28T04:12:23.378Z,14.20
2019-06-28T04:15:04.701Z,14.20
2019-06-28T04:17:46.610Z,14.40
2019-06-28T04:20:28.026Z,14.40
2019-06-28T04:23:09.392Z,14.50
2019-06-28T04:25:50.693Z,14.70
2019-06-28T04:28:31.539Z,14.70
2019-06-28T04:31:12.732Z,14.80
2019-06-28T04:33:53.648Z,14.90
2019-06-28T04:36:35.139Z,15.00
2019-06-28T04:39:16.390Z,15.10
2019-06-28T04:41:58.116Z,15.20
2019-06-28T04:44:39.218Z,15.30
2019-06-28T04:47:20.853Z,15.30
2019-06-28T04:50:01.689Z,15.40
2019-06-28T04:52:43.435Z,15.50
2019-06-28T04:55:24.923Z,15.60
2019-06-28T04:58:06.227Z,15.80
2019-06-28T05:00:48.050Z,15.90
2019-06-28T05:03:29.117Z,16.10
2019-06-28T05:06:10.886Z,16.30
2019-06-28T05:08:52.348Z,16.50
2019-06-28T05:11:33.802Z,16.80
2019-06-28T05:14:15.303Z,17.00
2019-06-28T05:16:56.840Z,17.30
2019-06-28T05:19:38.509Z,17.50
2019-06-28T05:22:18.303Z,17.70
2019-06-28T05:25:07.111Z,17.90
2019-06-28T05:27:55.834Z,18.20
2019-06-28T05:30:44.579Z,18.70
2019-06-28T05:33:33.279Z,19.20
2019-06-28T05:36:22.022Z,19.50
2019-06-28T05:39:10.738Z,19.90
2019-06-28T05:41:59.500Z,20.20
2019-06-28T05:44:48.202Z,20.40
2019-06-28T05:47:36.952Z,20.60
2019-06-28T05:50:25.759Z,20.90
2019-06-28T05:53:14.502Z,21.00
2019-06-28T05:56:03.393Z,21.30
2019-06-28T05:58:52.091Z,21.40
2019-06-28T06:01:40.903Z,21.40
2019-06-28T06:04:29.871Z,21.50
2019-06-28T06:07:20.476Z,21.80
2019-06-28T06:10:01.210Z,21.80
2019-06-28T06:12:42.483Z,21.90
2019-06-28T06:15:23.281Z,22.10
2019-06-28T06:18:04.392Z,22.10
2019-06-28T06:20:44.730Z,22.20
2019-06-28T06:23:33.501Z,22.30
2019-06-28T06:26:22.225Z,22.60
2019-06-28T06:29:10.935Z,22.40
2019-06-28T06:31:59.998Z,22.30
2019-06-28T06:34:49.107Z,22.30
2019-06-28T06:37:37.829Z,22.50
2019-06-28T06:40:26.714Z,22.70
2019-06-28T06:43:15.555Z,22.90
2019-06-28T06:46:04.383Z,23.00
2019-06-28T06:48:53.696Z,23.00
2019-06-28T06:51:42.454Z,23.20
2019-06-28T06:54:31.646Z,23.50
2019-06-28T06:57:20.373Z,23.50
2019-06-28T07:00:09.371Z,23.50
2019-06-28T07:02:58.111Z,23.60
2019-06-28T07:05:46.959Z,23.70
2019-06-28T07:08:35.646Z,23.70
2019-06-28T07:11:17.400Z,23.80
2019-06-28T07:13:58.634Z,23.80
2019-06-28T07:16:40.323Z,23.90
2019-06-28T07:19:22.559Z,23.80
2019-06-28T07:22:03.949Z,24.00
2019-06-28T07:24:45.303Z,24.20
2019-06-28T07:27:26.719Z,24.00
2019-06-28T07:30:08.083Z,24.00
2019-06-28T07:32:50.047Z,24.20
2019-06-28T07:35:31.785Z,24.40
2019-06-28T07:38:12.894Z,24.80
2019-06-28T07:40:54.503Z,24.80
2019-06-28T07:43:36.199Z,24.80
2019-06-28T07:46:17.842Z,24.70
2019-06-28T07:48:59.729Z,25.00
2019-06-28T07:51:40.683Z,25.30
2019-06-28T07:54:21.506Z,25.60
2019-06-28T07:57:03.596Z,25.70
2019-06-28T07:59:48.143Z,25.80
2019-06-28T08:02:27.771Z,25.60
2019-06-28T08:05:09.733Z,25.20
2019-06-28T08:07:50.808Z,25.40
2019-06-28T08:10:32.335Z,25.50
2019-06-28T08:13:13.191Z,25.40
2019-06-28T08:15:54.779Z,25.50
2019-06-28T08:18:36.473Z,25.70
2019-06-28T08:21:17.394Z,25.80
2019-06-28T08:23:58.955Z,26.00
2019-06-28T08:29:22.875Z,26.40
2019-06-28T08:34:46.335Z,26.60
2019-06-28T08:37:28.344Z,26.70
2019-06-28T08:40:09.750Z,26.60
2019-06-28T08:42:51.023Z,26.40
2019-06-28T08:45:36.670Z,26.50
2019-06-28T08:48:16.178Z,26.40
2019-06-28T08:50:54.762Z,26.40
2019-06-28T08:57:11.850Z,26.50
2019-06-28T09:00:00.940Z,26.70
2019-06-28T09:02:49.706Z,26.80
2019-06-28T09:05:38.496Z,26.90
2019-06-28T09:08:27.721Z,27.10
2019-06-28T09:11:17.010Z,27.10
2019-06-28T09:14:05.758Z,27.10
2019-06-28T09:16:54.527Z,27.10
2019-06-28T09:19:24.306Z,27.20
2019-06-28T09:22:06.023Z,27.40
2019-06-28T09:24:47.293Z,27.40
2019-06-28T09:27:29.413Z,27.60
2019-06-28T09:30:10.844Z,27.70
2019-06-28T09:32:52.058Z,27.90
2019-06-28T09:35:33.596Z,27.90
2019-06-28T09:38:14.985Z,27.90
2019-06-28T09:40:56.174Z,27.80
2019-06-28T09:43:37.326Z,27.80
2019-06-28T09:46:18.875Z,27.70
2019-06-28T09:49:00.612Z,27.30
2019-06-28T09:51:42.315Z,27.10
2019-06-28T09:54:23.453Z,26.80
2019-06-28T09:57:04.931Z,26.80
2019-06-28T09:59:46.674Z,26.50
2019-06-28T10:05:10.124Z,26.40
2019-06-28T10:07:51.820Z,26.50
2019-06-28T10:10:33.552Z,26.70
2019-06-28T10:13:14.678Z,26.80
2019-06-28T10:15:55.499Z,27.00
2019-06-28T10:18:37.215Z,27.30
2019-06-28T10:21:18.537Z,27.70
2019-06-28T10:23:59.391Z,27.80
2019-06-28T10:26:40.747Z,27.70
2019-06-28T10:29:22.059Z,27.40
2019-06-28T10:32:03.018Z,27.20
2019-06-28T10:34:44.594Z,27.20
2019-06-28T10:37:26.099Z,27.20
2019-06-28T10:40:07.078Z,27.20
2019-06-28T10:42:48.330Z,27.10
2019-06-28T10:45:29.989Z,27.10
2019-06-28T10:48:11.786Z,27.00
2019-06-28T10:50:53.645Z,27.20
2019-06-28T10:53:23.430Z,27.10
2019-06-28T10:56:26.155Z,27.10
2019-06-28T10:59:03.124Z,27.10
2019-06-28T11:01:51.922Z,27.00
2019-06-28T11:04:40.676Z,27.00
2019-06-28T11:07:29.539Z,27.00
2019-06-28T11:10:18.382Z,27.00
2019-06-28T11:13:07.742Z,27.10
2019-06-28T11:15:56.478Z,26.90
2019-06-28T11:18:45.242Z,27.00
2019-06-28T11:21:34.451Z,27.00
2019-06-28T11:24:23.211Z,27.00
2019-06-28T11:27:12.034Z,27.00
2019-06-28T11:30:01.142Z,26.90
2019-06-28T11:32:50.278Z,26.90
2019-06-28T11:35:39.002Z,27.00
2019-06-28T11:38:27.928Z,26.90
2019-06-28T11:41:16.662Z,27.00
2019-06-28T11:44:05.875Z,27.00
2019-06-28T11:46:54.641Z,27.10
2019-06-28T11:49:35.607Z,27.10
2019-06-28T11:52:17.581Z,27.20
2019-06-28T11:54:58.887Z,27.30
2019-06-28T11:57:40.966Z,27.40
2019-06-28T12:00:22.580Z,27.40
2019-06-28T12:03:03.747Z,27.40
2019-06-28T12:05:44.914Z,27.40
2019-06-28T12:08:26.500Z,27.30
2019-06-28T12:11:07.349Z,27.30
2019-06-28T12:13:48.962Z,27.20
2019-06-28T12:16:30.749Z,27.20
2019-06-28T12:19:12.210Z,27.20
2019-06-28T12:21:53.422Z,27.20
2019-06-28T12:24:35.415Z,27.20
2019-06-28T12:27:17.155Z,27.10
2019-06-28T12:29:58.811Z,27.10
2019-06-28T12:32:43.486Z,27.10
2019-06-28T12:35:23.620Z,27.00
2019-06-28T12:37:53.473Z,27.00
2019-06-28T12:40:43.298Z,27.00
2019-06-28T12:43:32.098Z,27.00
2019-06-28T12:46:20.895Z,26.90
2019-06-28T12:49:30.223Z,26.90
2019-06-28T12:52:18.982Z,27.00
2019-06-28T12:55:08.342Z,27.10
2019-06-28T12:57:57.653Z,27.20
2019-06-28T13:03:34.488Z,27.20
2019-06-28T13:06:23.235Z,27.30
2019-06-28T13:09:06.087Z,27.40
2019-06-28T13:11:47.366Z,27.30
2019-06-28T13:14:28.502Z,27.30
2019-06-28T13:17:10.122Z,27.40
2019-06-28T13:19:40.900Z,27.40
2019-06-28T13:22:11.173Z,27.30
2019-06-28T13:24:41.058Z,27.30
2019-06-28T13:27:10.912Z,27.30
2019-06-28T13:29:41.172Z,27.20
2019-06-28T13:32:11.371Z,27.20
2019-06-28T13:34:41.227Z,27.30
2019-06-28T13:37:11.010Z,27.40
2019-06-28T13:39:40.813Z,27.40
2019-06-28T13:42:11.191Z,27.40
2019-06-28T13:44:41.016Z,27.40
2019-06-28T13:47:11.416Z,27.50
2019-06-28T13:49:41.733Z,27.40
2019-06-28T13:52:11.984Z,27.40
2019-06-28T13:54:42.534Z,27.40
2019-06-28T13:57:13.178Z,27.40
2019-06-28T13:59:42.973Z,27.30
2019-06-28T14:02:13.281Z,27.30
2019-06-28T14:04:43.062Z,27.30
2019-06-28T14:07:13.800Z,27.40
2019-06-28T14:09:43.559Z,27.30
2019-06-28T14:12:18.991Z,27.40
2019-06-28T14:14:48.790Z,27.40
2019-06-28T14:17:18.630Z,27.30
2019-06-28T14:19:48.410Z,27.30
2019-06-28T14:22:18.570Z,27.30
2019-06-28T14:24:49.265Z,27.40
2019-06-28T14:27:19.583Z,27.30
2019-06-28T14:29:49.862Z,27.30
2019-06-28T14:32:19.714Z,27.30
2019-06-28T14:34:49.649Z,27.20
2019-06-28T14:37:19.443Z,27.10
2019-06-28T14:39:49.611Z,27.20
2019-06-28T14:42:19.726Z,27.20
2019-06-28T14:44:49.590Z,27.30
2019-06-28T14:47:20.225Z,27.30
2019-06-28T14:49:50.898Z,27.30
2019-06-28T14:52:21.090Z,27.20
2019-06-28T14:54:50.979Z,27.20
2019-06-28T14:57:20.946Z,27.10
2019-06-28T14:59:51.295Z,27.10
2019-06-28T15:02:21.098Z,27.10
2019-06-28T15:04:50.914Z,27.20
2019-06-28T15:07:20.699Z,27.10
2019-06-28T15:09:50.570Z,27.10
2019-06-28T15:12:20.738Z,27.00
2019-06-28T15:14:50.881Z,27.00
2019-06-28T15:17:20.854Z,27.10
2019-06-28T15:19:50.956Z,27.10
2019-06-28T15:22:20.776Z,27.20
2019-06-28T15:24:50.890Z,27.30
2019-06-28T15:27:20.674Z,27.30
2019-06-28T15:29:50.756Z,27.30
2019-06-28T15:32:20.534Z,27.20
2019-06-28T15:34:50.691Z,27.20
2019-06-28T15:37:20.986Z,27.10
2019-06-28T15:39:50.898Z,27.10
2019-06-28T15:42:20.888Z,27.00
2019-06-28T15:44:51.084Z,26.90
2019-06-28T15:47:21.367Z,26.90
2019-06-28T15:49:51.176Z,27.00
2019-06-28T15:52:21.462Z,27.00
2019-06-28T15:54:51.263Z,27.10
2019-06-28T15:57:21.895Z,27.00
2019-06-28T15:59:53.140Z,27.00
2019-06-28T16:02:23.902Z,26.90
2019-06-28T16:04:55.340Z,26.80
2019-06-28T16:07:26.091Z,26.70
2019-06-28T16:09:55.868Z,26.80
2019-06-28T16:12:26.413Z,26.90
2019-06-28T16:14:56.182Z,27.00
2019-06-28T16:17:26.034Z,27.00
2019-06-28T16:19:56.563Z,27.00
2019-06-28T16:22:26.804Z,27.00
2019-06-28T16:24:56.898Z,27.00
2019-06-28T16:27:27.489Z,26.90
2019-06-28T16:29:57.608Z,26.80
2019-06-28T16:32:27.406Z,26.70
2019-06-28T16:34:57.580Z,26.70
2019-06-28T16:37:27.395Z,26.70
2019-06-28T16:39:57.510Z,26.60
2019-06-28T16:42:28.182Z,26.60
2019-06-28T16:44:57.950Z,26.60
2019-06-28T16:47:27.750Z,26.60
2019-06-28T16:50:02.165Z,26.60
2019-06-28T16:52:29.699Z,26.70
2019-06-28T16:54:59.850Z,26.60
2019-06-28T16:57:29.638Z,26.60
2019-06-28T16:59:59.491Z,26.50
2019-06-28T17:02:29.694Z,26.40
2019-06-28T17:05:00.046Z,26.40
2019-06-28T17:07:29.896Z,26.30
2019-06-28T17:09:59.878Z,26.20
2019-06-28T17:12:32.147Z,26.20
2019-06-28T17:15:02.071Z,26.20
2019-06-28T17:17:32.296Z,26.10
2019-06-28T17:20:17.841Z,26.10
2019-06-28T17:22:34.771Z,26.10
2019-06-28T17:25:05.228Z,26.00
2019-06-28T17:27:35.750Z,26.00
2019-06-28T17:30:06.119Z,25.90
2019-06-28T17:32:36.385Z,25.90
2019-06-28T17:35:11.082Z,25.80
2019-06-28T17:37:38.899Z,25.70
2019-06-28T17:40:09.439Z,25.70
2019-06-28T17:42:39.557Z,25.70
2019-06-28T17:45:10.078Z,25.60
2019-06-28T17:47:39.884Z,25.50
2019-06-28T17:50:09.976Z,25.50
2019-06-28T17:52:40.547Z,25.50
2019-06-28T17:55:11.308Z,25.40
2019-06-28T17:57:41.795Z,25.40
2019-06-28T18:00:11.595Z,25.40
2019-06-28T18:02:41.440Z,25.40
2019-06-28T18:05:11.871Z,25.50
2019-06-28T18:07:42.550Z,25.50
2019-06-28T18:10:13.590Z,25.40
2019-06-28T18:12:43.860Z,25.40
2019-06-28T18:15:14.562Z,25.30
2019-06-28T18:17:45.300Z,25.10
2019-06-28T18:20:15.829Z,25.00
2019-06-28T18:22:46.095Z,24.90
2019-06-28T18:25:16.792Z,24.80
2019-06-28T18:27:48.057Z,24.60
2019-06-28T18:30:19.108Z,24.50
2019-06-28T18:32:49.390Z,24.30
2019-06-28T18:35:19.170Z,24.20
2019-06-28T18:37:49.449Z,24.00
2019-06-28T18:40:20.073Z,23.90
2019-06-28T18:42:50.214Z,23.80
2019-06-28T18:45:20.011Z,23.60
2019-06-28T18:47:49.816Z,23.40
2019-06-28T18:50:19.957Z,23.30
2019-06-28T18:52:49.709Z,23.10
2019-06-28T18:55:19.925Z,23.00
2019-06-28T18:57:50.496Z,22.80
2019-06-28T19:00:22.015Z,22.70
2019-06-28T19:02:51.783Z,22.60
2019-06-28T19:05:21.676Z,22.40
2019-06-28T19:07:51.424Z,22.30
2019-06-28T19:10:21.465Z,22.20
2019-06-28T19:12:51.343Z,22.00
2019-06-28T19:15:22.583Z,21.90
2019-06-28T19:17:52.722Z,21.80
2019-06-28T19:20:22.830Z,21.70
2019-06-28T19:22:52.578Z,21.50
2019-06-28T19:25:22.342Z,21.40
2019-06-28T19:27:52.085Z,21.30
2019-06-28T19:30:22.539Z,21.20
2019-06-28T19:32:52.785Z,21.10
2019-06-28T19:35:22.989Z,21.00
2019-06-28T19:37:52.758Z,20.90
2019-06-28T19:40:23.985Z,20.80
2019-06-28T19:42:53.709Z,20.60
2019-06-28T19:45:24.591Z,20.50
2019-06-28T19:47:54.317Z,20.40
2019-06-28T19:50:25.494Z,20.30
2019-06-28T19:52:55.886Z,20.20
2019-06-28T19:55:25.621Z,20.10
2019-06-28T19:57:55.384Z,20.00
2019-06-28T20:00:26.010Z,19.90
2019-06-28T20:02:57.027Z,19.80
2019-06-28T20:05:26.751Z,19.80
2019-06-28T20:07:56.545Z,19.70
2019-06-28T20:10:26.591Z,19.60
2019-06-28T20:12:56.782Z,19.60
2019-06-28T20:15:27.251Z,19.50
2019-06-28T20:17:58.101Z,19.40
2019-06-28T20:20:30.353Z,19.40
2019-06-28T20:23:00.427Z,19.40
2019-06-28T20:25:31.091Z,19.30
2019-06-28T20:28:01.275Z,19.30
2019-06-28T20:30:43.721Z,19.20
2019-06-28T20:33:10.503Z,19.10
2019-06-28T20:35:40.576Z,19.00
2019-06-28T20:38:12.186Z,19.00
2019-06-28T20:40:44.097Z,18.90
2019-06-28T20:43:13.901Z,18.90
2019-06-28T20:45:44.115Z,18.90
2019-06-28T20:48:14.166Z,18.80
2019-06-28T20:50:45.065Z,18.70
2019-06-28T20:53:15.334Z,18.70
2019-06-28T20:55:45.782Z,18.60
2019-06-28T20:58:16.147Z,18.50
2019-06-28T21:00:46.991Z,18.50
2019-06-28T21:03:18.070Z,18.40
2019-06-28T21:05:48.397Z,18.30
2019-06-28T21:08:19.516Z,18.30
2019-06-28T21:10:52.344Z,18.20
2019-06-28T21:13:22.701Z,18.20
2019-06-28T21:15:56.131Z,18.10
2019-06-28T21:18:26.588Z,18.00
2019-06-28T21:20:57.548Z,18.00
2019-06-28T21:23:28.100Z,17.90
2019-06-28T21:25:59.648Z,17.80
2019-06-28T21:28:31.995Z,17.70
2019-06-28T21:31:02.625Z,17.70
2019-06-28T21:33:34.556Z,17.70
2019-06-28T21:36:04.335Z,17.60
2019-06-28T21:38:35.389Z,17.60
2019-06-28T21:41:07.143Z,17.50
2019-06-28T21:43:39.032Z,17.50
2019-06-28T21:46:09.330Z,17.50
2019-06-28T21:48:40.548Z,17.50
2019-06-28T21:51:10.819Z,17.40
2019-06-28T21:53:42.612Z,17.30
2019-06-28T21:56:12.852Z,17.30
2019-06-28T21:58:44.754Z,17.20
2019-06-28T22:01:16.887Z,17.20
2019-06-28T22:03:46.682Z,17.10
2019-06-28T22:06:17.252Z,17.10
2019-06-28T22:08:47.037Z,17.10
2019-06-28T22:11:17.138Z,17.10
2019-06-28T22:13:46.873Z,17.00
2019-06-28T22:16:16.976Z,17.00
2019-06-28T22:18:47.161Z,17.00
2019-06-28T22:21:17.713Z,16.90
2019-06-28T22:23:47.822Z,16.90
2019-06-28T22:26:17.598Z,16.80
2019-06-28T22:28:47.348Z,16.80
2019-06-28T22:31:17.077Z,16.80
2019-06-28T22:33:47.282Z,16.70
2019-06-28T22:36:17.023Z,16.70
2019-06-28T22:38:47.445Z,16.70
2019-06-28T22:41:17.183Z,16.60
2019-06-28T22:43:47.291Z,16.60
2019-06-28T22:46:17.370Z,16.60
2019-06-28T22:48:47.930Z,16.60
2019-06-28T22:51:18.102Z,16.50
2019-06-28T22:53:47.886Z,16.50
2019-06-28T22:56:18.051Z,16.50
2019-06-28T22:58:48.266Z,16.40
2019-06-28T23:01:18.471Z,16.40
2019-06-28T23:03:48.678Z,16.30
2019-06-28T23:06:18.419Z,16.30
2019-06-28T23:08:48.636Z,16.20
2019-06-28T23:11:18.429Z,16.20
2019-06-28T23:13:48.294Z,16.20
2019-06-28T23:16:18.098Z,16.20
2019-06-28T23:18:48.338Z,16.20
2019-06-28T23:21:18.067Z,16.20
2019-06-28T23:23:47.837Z,16.20
2019-06-28T23:26:17.587Z,16.10
2019-06-28T23:28:47.330Z,16.10
2019-06-28T23:31:17.111Z,16.10
2019-06-28T23:33:47.219Z,16.00
2019-06-28T23:36:17.467Z,16.00
2019-06-28T23:38:47.215Z,15.90
2019-06-28T23:41:17.626Z,15.90
2019-06-28T23:43:47.394Z,15.80
2019-06-28T23:46:17.513Z,15.80
2019-06-28T23:48:48.002Z,15.80
2019-06-28T23:51:17.770Z,15.70
2019-06-28T23:53:53.625Z,15.70
2019-06-28T23:56:19.324Z,15.70
2019-06-28T23:58:49.479Z,15.60
